createdAt,value
2019-02-10T00:00:03.175Z,4.90
2019-02-10T00:02:35.638Z,4.90
2019-02-10T00:05:06.356Z,4.80
2019-02-10T00:07:37.582Z,4.90
2019-02-10T00:10:08.581Z,4.90
2019-02-10T00:12:39.526Z,4.90
2019-02-10T00:15:10.422Z,4.90
2019-02-10T00:17:41.370Z,4.90
2019-02-10T00:20:12.546Z,4.90
2019-02-10T00:22:43.922Z,4.90
2019-02-10T00:25:15.047Z,4.90
2019-02-10T00:27:46.182Z,4.90
2019-02-10T00:30:17.206Z,4.90
2019-02-10T00:32:49.075Z,5.00
2019-02-10T00:35:19.934Z,5.00
2019-02-10T00:37:50.713Z,4.90
2019-02-10T00:40:21.199Z,4.90
2019-02-10T00:42:52.080Z,4.90
2019-02-10T00:45:22.824Z,4.90
2019-02-10T00:47:54.022Z,5.00
2019-02-10T00:50:24.886Z,5.00
2019-02-10T00:52:55.514Z,5.00
2019-02-10T00:55:26.329Z,5.00
2019-02-10T00:57:57.392Z,5.10
2019-02-10T01:00:28.279Z,5.10
2019-02-10T01:02:58.965Z,5.10
2019-02-10T01:05:30.077Z,5.10
2019-02-10T01:08:00.834Z,5.10
2019-02-10T01:10:32.703Z,5.10
2019-02-10T01:13:03.573Z,5.20
2019-02-10T01:15:34.166Z,5.20
2019-02-10T01:18:05.073Z,5.20
2019-02-10T01:20:36.361Z,5.20
2019-02-10T01:23:07.258Z,5.10
2019-02-10T01:25:37.867Z,5.20
2019-02-10T01:28:08.767Z,5.10
2019-02-10T01:30:40.506Z,5.20
2019-02-10T01:33:11.497Z,5.10
2019-02-10T01:35:42.258Z,5.10
2019-02-10T01:38:13.556Z,5.10
2019-02-10T01:40:44.784Z,5.20
2019-02-10T01:43:15.661Z,5.10
2019-02-10T01:45:46.602Z,5.10
2019-02-10T01:48:17.599Z,5.10
2019-02-10T01:50:48.276Z,5.00
2019-02-10T01:53:18.956Z,5.10
2019-02-10T01:55:50.105Z,5.00
2019-02-10T01:58:23.428Z,5.00
2019-02-10T02:00:54.522Z,4.90
2019-02-10T02:03:25.408Z,4.90
2019-02-10T02:05:56.352Z,4.90
2019-02-10T02:08:27.220Z,4.80
2019-02-10T02:10:57.882Z,4.80
2019-02-10T02:13:28.784Z,4.70
2019-02-10T02:15:59.724Z,4.70
2019-02-10T02:18:31.335Z,4.70
2019-02-10T02:21:02.537Z,4.70
2019-02-10T02:23:33.295Z,4.60
2019-02-10T02:26:04.244Z,4.70
2019-02-10T02:28:34.955Z,4.70
2019-02-10T02:31:06.009Z,4.70
2019-02-10T02:33:36.700Z,4.70
2019-02-10T02:36:07.562Z,4.70
2019-02-10T02:38:38.185Z,4.70
2019-02-10T02:41:09.017Z,4.70
2019-02-10T02:43:40.063Z,4.70
2019-02-10T02:46:10.987Z,4.70
2019-02-10T02:48:42.055Z,4.70
2019-02-10T02:51:12.927Z,4.70
2019-02-10T02:53:43.913Z,4.70
2019-02-10T02:56:14.521Z,4.70
2019-02-10T02:58:45.198Z,4.60
2019-02-10T03:01:16.055Z,4.60
2019-02-10T03:03:47.059Z,4.60
2019-02-10T03:06:18.348Z,4.50
2019-02-10T03:08:49.083Z,4.50
2019-02-10T03:11:19.848Z,4.50
2019-02-10T03:13:50.619Z,4.40
2019-02-10T03:16:21.572Z,4.30
2019-02-10T03:18:53.349Z,4.20
2019-02-10T03:21:24.240Z,4.10
2019-02-10T03:23:55.083Z,4.10
2019-02-10T03:26:25.988Z,4.00
2019-02-10T03:28:56.674Z,4.00
2019-02-10T03:31:27.805Z,3.90
2019-02-10T03:33:58.556Z,3.90
2019-02-10T03:36:29.397Z,3.90
2019-02-10T03:39:01.526Z,3.90
2019-02-10T03:41:34.449Z,3.90
2019-02-10T03:44:05.588Z,4.00
2019-02-10T03:46:36.622Z,4.00
2019-02-10T03:49:07.782Z,4.00
2019-02-10T03:51:38.980Z,4.00
2019-02-10T03:54:09.542Z,4.10
2019-02-10T03:56:41.815Z,4.10
2019-02-10T03:59:12.729Z,4.10
2019-02-10T04:01:43.557Z,4.10
2019-02-10T04:04:14.561Z,4.10
2019-02-10T04:06:45.169Z,4.10
2019-02-10T04:09:16.215Z,4.00
2019-02-10T04:11:47.151Z,4.00
2019-02-10T04:14:17.686Z,4.00
2019-02-10T04:16:48.652Z,4.00
2019-02-10T04:19:19.514Z,4.00
2019-02-10T04:21:50.311Z,4.00
2019-02-10T04:24:21.169Z,4.00
2019-02-10T04:26:51.998Z,4.00
2019-02-10T04:29:22.868Z,4.00
2019-02-10T04:31:53.642Z,4.00
2019-02-10T04:34:24.466Z,4.00
2019-02-10T04:36:55.904Z,4.00
2019-02-10T04:39:26.501Z,3.90
2019-02-10T04:41:57.806Z,3.90
2019-02-10T04:44:28.724Z,3.90
2019-02-10T04:47:00.653Z,3.90
2019-02-10T04:49:31.558Z,4.00
2019-02-10T04:52:02.112Z,4.00
2019-02-10T04:54:33.016Z,4.00
2019-02-10T04:57:03.758Z,4.00
2019-02-10T04:59:34.770Z,4.10
2019-02-10T05:02:05.552Z,4.10
2019-02-10T05:04:36.870Z,4.10
2019-02-10T05:07:07.389Z,4.10
2019-02-10T05:09:38.322Z,4.10
2019-02-10T05:12:09.244Z,4.10
2019-02-10T05:14:40.013Z,4.10
2019-02-10T05:17:11.862Z,4.10
2019-02-10T05:19:42.983Z,4.10
2019-02-10T05:22:13.709Z,4.00
2019-02-10T05:24:44.555Z,4.00
2019-02-10T05:27:15.479Z,4.00
2019-02-10T05:29:46.809Z,4.00
2019-02-10T05:32:17.810Z,4.00
2019-02-10T05:34:48.813Z,4.00
2019-02-10T05:37:19.436Z,4.00
2019-02-10T05:39:50.129Z,3.90
2019-02-10T05:42:20.992Z,3.90
2019-02-10T05:44:53.286Z,3.90
2019-02-10T05:47:24.069Z,3.90
2019-02-10T05:49:55.416Z,3.90
2019-02-10T05:52:27.034Z,3.90
2019-02-10T05:54:58.459Z,3.90
2019-02-10T05:57:29.434Z,3.90
2019-02-10T06:00:00.382Z,3.90
2019-02-10T06:02:32.710Z,3.90
2019-02-10T06:05:21.639Z,3.90
2019-02-10T06:07:52.178Z,3.90
2019-02-10T06:10:22.774Z,4.00
2019-02-10T06:12:53.750Z,4.00
2019-02-10T06:15:24.992Z,4.10
2019-02-10T06:17:55.627Z,4.00
2019-02-10T06:20:26.563Z,4.10
2019-02-10T06:22:57.305Z,4.10
2019-02-10T06:25:28.063Z,4.20
2019-02-10T06:27:58.834Z,4.30
2019-02-10T06:30:29.528Z,4.40
2019-02-10T06:33:01.495Z,4.60
2019-02-10T06:35:33.323Z,4.80
2019-02-10T06:38:04.361Z,4.80
2019-02-10T06:40:35.054Z,4.90
2019-02-10T06:43:06.557Z,4.90
2019-02-10T06:45:37.727Z,4.90
2019-02-10T06:48:08.764Z,5.00
2019-02-10T06:50:39.856Z,5.00
2019-02-10T06:53:11.255Z,5.10
2019-02-10T06:55:41.967Z,5.30
2019-02-10T06:58:12.731Z,5.50
2019-02-10T07:01:06.635Z,5.70
2019-02-10T07:04:21.914Z,6.00
2019-02-10T07:06:52.575Z,6.20
2019-02-10T07:09:27.317Z,6.40
2019-02-10T07:11:57.950Z,6.80
2019-02-10T07:14:34.590Z,7.30
2019-02-10T07:17:46.587Z,7.70
2019-02-10T07:20:42.214Z,8.10
2019-02-10T07:23:56.700Z,8.40
2019-02-10T07:26:55.133Z,8.90
2019-02-10T07:30:02.408Z,9.20
2019-02-10T07:32:37.887Z,9.40
2019-02-10T07:35:27.018Z,9.50
2019-02-10T07:38:38.982Z,9.50
2019-02-10T07:41:57.791Z,9.70
2019-02-10T07:45:01.426Z,10.00
2019-02-10T07:48:26.827Z,10.20
2019-02-10T07:51:18.325Z,10.10
2019-02-10T07:54:10.578Z,10.30
2019-02-10T07:57:47.036Z,10.40
2019-02-10T08:01:13.562Z,10.70
2019-02-10T08:04:14.943Z,11.00
2019-02-10T08:07:13.826Z,11.40
2019-02-10T08:10:10.680Z,11.90
2019-02-10T08:13:03.462Z,12.30
2019-02-10T08:16:08.741Z,12.50
2019-02-10T08:19:16.101Z,12.80
2019-02-10T08:22:19.224Z,12.90
2019-02-10T08:25:17.657Z,13.00
2019-02-10T08:28:29.597Z,13.10
2019-02-10T08:31:43.012Z,13.40
2019-02-10T08:35:10.192Z,13.60
2019-02-10T08:38:16.368Z,13.80
2019-02-10T08:41:30.746Z,14.00
2019-02-10T08:44:35.622Z,14.10
2019-02-10T08:47:24.753Z,14.20
2019-02-10T08:50:40.198Z,14.40
2019-02-10T08:53:20.925Z,14.60
2019-02-10T08:55:51.674Z,14.80
2019-02-10T08:58:22.286Z,14.80
2019-02-10T09:00:53.361Z,15.00
2019-02-10T09:03:24.472Z,15.20
2019-02-10T09:05:55.360Z,15.30
2019-02-10T09:08:26.364Z,15.30
2019-02-10T09:10:57.352Z,15.40
2019-02-10T09:13:28.287Z,15.40
2019-02-10T09:15:59.408Z,15.40
2019-02-10T09:18:30.557Z,15.50
2019-02-10T09:21:01.027Z,15.60
2019-02-10T09:23:31.967Z,15.70
2019-02-10T09:26:02.875Z,15.80
2019-02-10T09:28:33.689Z,15.70
2019-02-10T09:31:05.488Z,15.80
2019-02-10T09:33:36.600Z,15.70
2019-02-10T09:36:07.494Z,15.60
2019-02-10T09:38:38.571Z,15.60
2019-02-10T09:41:09.829Z,15.60
2019-02-10T09:43:40.710Z,15.70
2019-02-10T09:46:12.118Z,15.60
2019-02-10T09:48:43.075Z,15.60
2019-02-10T09:51:14.096Z,15.60
2019-02-10T09:53:45.026Z,15.50
2019-02-10T09:56:15.955Z,15.50
2019-02-10T09:58:46.911Z,15.50
2019-02-10T10:01:17.641Z,15.50
2019-02-10T10:03:48.437Z,15.60
2019-02-10T10:06:19.344Z,15.60
2019-02-10T10:08:49.955Z,15.70
2019-02-10T10:11:20.611Z,15.80
2019-02-10T10:13:51.926Z,15.80
2019-02-10T10:16:22.864Z,15.90
2019-02-10T10:18:53.605Z,15.80
2019-02-10T10:21:24.118Z,15.80
2019-02-10T10:23:55.134Z,15.70
2019-02-10T10:26:25.822Z,15.80
2019-02-10T10:28:58.152Z,15.90
2019-02-10T10:31:28.855Z,15.90
2019-02-10T10:33:59.880Z,15.90
2019-02-10T10:36:30.464Z,15.90
2019-02-10T10:39:01.091Z,15.70
2019-02-10T10:41:34.042Z,15.60
2019-02-10T10:44:04.853Z,15.40
2019-02-10T10:46:35.491Z,15.30
2019-02-10T10:49:06.502Z,15.10
2019-02-10T10:51:39.351Z,15.00
2019-02-10T10:54:11.754Z,14.70
2019-02-10T10:56:42.517Z,14.70
2019-02-10T10:59:13.258Z,14.50
2019-02-10T11:01:44.370Z,14.40
2019-02-10T11:04:14.996Z,14.20
2019-02-10T11:06:45.800Z,14.10
2019-02-10T11:09:16.822Z,13.90
2019-02-10T11:11:47.958Z,13.90
2019-02-10T11:14:19.215Z,13.80
2019-02-10T11:16:49.816Z,13.80
2019-02-10T11:19:20.894Z,13.80
2019-02-10T11:21:52.086Z,13.80
2019-02-10T11:24:28.603Z,13.70
2019-02-10T11:26:55.473Z,13.70
2019-02-10T11:29:26.435Z,13.70
2019-02-10T11:31:57.317Z,13.70
2019-02-10T11:34:28.660Z,13.60
2019-02-10T11:37:01.566Z,13.40
2019-02-10T11:39:32.214Z,13.40
2019-02-10T11:42:03.274Z,13.30
2019-02-10T11:44:34.496Z,13.20
2019-02-10T11:47:05.458Z,13.20
2019-02-10T11:49:36.335Z,13.10
2019-02-10T11:52:07.668Z,13.10
2019-02-10T11:54:38.585Z,13.20
2019-02-10T11:57:09.999Z,13.20
2019-02-10T11:59:40.869Z,13.10
2019-02-10T12:02:12.013Z,13.10
2019-02-10T12:04:42.692Z,13.10
2019-02-10T12:07:13.579Z,13.10
2019-02-10T12:09:51.390Z,13.00
2019-02-10T12:12:16.889Z,12.90
2019-02-10T12:14:47.733Z,12.90
2019-02-10T12:17:18.370Z,12.90
2019-02-10T12:19:50.819Z,12.90
2019-02-10T12:22:21.748Z,12.80
2019-02-10T12:24:52.593Z,12.80
2019-02-10T12:27:23.357Z,12.80
2019-02-10T12:29:54.108Z,12.80
2019-02-10T12:32:24.881Z,12.70
2019-02-10T12:34:55.673Z,12.70
2019-02-10T12:37:32.241Z,12.60
2019-02-10T12:40:00.024Z,12.50
2019-02-10T12:42:30.785Z,12.50
2019-02-10T12:45:01.568Z,12.50
2019-02-10T12:47:32.437Z,12.50
2019-02-10T12:50:03.160Z,12.40
2019-02-10T12:52:33.976Z,12.50
2019-02-10T12:55:05.191Z,12.40
2019-02-10T12:57:36.422Z,12.50
2019-02-10T13:00:11.400Z,12.50
2019-02-10T13:02:42.418Z,12.50
2019-02-10T13:05:13.378Z,12.50
2019-02-10T13:07:44.203Z,12.50
2019-02-10T13:10:17.437Z,12.60
2019-02-10T13:12:47.865Z,12.50
2019-02-10T13:15:19.035Z,12.50
2019-02-10T13:17:50.341Z,12.40
2019-02-10T13:20:21.520Z,12.40
2019-02-10T13:22:52.295Z,12.40
2019-02-10T13:25:23.589Z,12.30
2019-02-10T13:27:54.367Z,12.20
2019-02-10T13:30:25.389Z,12.10
2019-02-10T13:32:56.315Z,12.10
2019-02-10T13:35:27.342Z,12.10
2019-02-10T13:37:58.356Z,12.00
2019-02-10T13:40:29.347Z,12.00
2019-02-10T13:43:00.306Z,12.00
2019-02-10T13:45:31.469Z,12.00
2019-02-10T13:48:02.560Z,12.00
2019-02-10T13:50:33.365Z,12.10
2019-02-10T13:53:04.261Z,12.10
2019-02-10T13:55:35.249Z,12.00
2019-02-10T13:58:06.265Z,12.00
2019-02-10T14:00:37.013Z,11.90
2019-02-10T14:03:08.075Z,11.90
2019-02-10T14:05:38.880Z,11.90
2019-02-10T14:08:09.710Z,11.90
2019-02-10T14:10:41.060Z,11.80
2019-02-10T14:13:11.878Z,11.80
2019-02-10T14:15:42.923Z,11.80
2019-02-10T14:18:13.774Z,11.70
2019-02-10T14:20:44.677Z,11.60
2019-02-10T14:23:15.874Z,11.60
2019-02-10T14:25:46.752Z,11.50
2019-02-10T14:28:17.585Z,11.50
2019-02-10T14:30:48.771Z,11.40
2019-02-10T14:33:19.668Z,11.30
2019-02-10T14:35:50.582Z,11.30
2019-02-10T14:38:21.895Z,11.30
2019-02-10T14:40:52.682Z,11.20
2019-02-10T14:43:23.403Z,11.10
2019-02-10T14:45:54.524Z,11.20
2019-02-10T14:48:27.236Z,11.10
2019-02-10T14:50:58.209Z,10.90
2019-02-10T14:53:29.455Z,10.80
2019-02-10T14:56:00.700Z,10.80
2019-02-10T14:58:31.695Z,10.70
2019-02-10T15:01:02.737Z,10.70
2019-02-10T15:03:33.641Z,10.60
2019-02-10T15:06:04.976Z,10.50
2019-02-10T15:08:36.048Z,10.50
2019-02-10T15:11:06.775Z,10.40
2019-02-10T15:13:38.020Z,10.40
2019-02-10T15:16:08.813Z,10.30
2019-02-10T15:18:40.058Z,10.20
2019-02-10T15:21:11.098Z,10.10
2019-02-10T15:23:42.007Z,10.10
2019-02-10T15:26:13.113Z,10.00
2019-02-10T15:28:43.961Z,10.00
2019-02-10T15:31:15.199Z,10.00
2019-02-10T15:33:45.961Z,10.00
2019-02-10T15:36:17.188Z,9.90
2019-02-10T15:38:48.648Z,9.80
2019-02-10T15:41:19.925Z,9.70
2019-02-10T15:43:50.996Z,9.60
2019-02-10T15:46:24.471Z,9.60
2019-02-10T15:48:55.473Z,9.60
2019-02-10T15:51:35.633Z,9.50
2019-02-10T15:53:59.255Z,9.50
2019-02-10T15:56:29.792Z,9.40
2019-02-10T15:59:00.913Z,9.40
2019-02-10T16:01:31.424Z,9.30
2019-02-10T16:04:02.694Z,9.20
2019-02-10T16:06:33.648Z,9.20
2019-02-10T16:09:04.902Z,9.20
2019-02-10T16:11:37.571Z,9.20
2019-02-10T16:14:08.482Z,9.20
2019-02-10T16:16:39.374Z,9.10
2019-02-10T16:19:10.118Z,9.00
2019-02-10T16:21:41.244Z,9.10
2019-02-10T16:24:12.983Z,9.00
2019-02-10T16:26:43.685Z,8.90
2019-02-10T16:29:14.763Z,9.00
2019-02-10T16:31:45.951Z,8.90
2019-02-10T16:34:16.884Z,8.90
2019-02-10T16:36:47.722Z,8.90
2019-02-10T16:39:18.576Z,8.80
2019-02-10T16:41:49.890Z,8.80
2019-02-10T16:44:20.683Z,8.80
2019-02-10T16:46:51.816Z,8.80
2019-02-10T16:49:22.434Z,8.80
2019-02-10T16:51:53.832Z,8.80
2019-02-10T16:54:24.605Z,8.80
2019-02-10T16:56:55.767Z,8.70
2019-02-10T16:59:26.569Z,8.70
2019-02-10T17:01:59.859Z,8.60
2019-02-10T17:04:30.604Z,8.60
2019-02-10T17:07:01.998Z,8.60
2019-02-10T17:09:33.349Z,8.50
2019-02-10T17:12:04.935Z,8.50
2019-02-10T17:14:35.849Z,8.40
2019-02-10T17:17:07.031Z,8.40
2019-02-10T17:19:37.752Z,8.40
2019-02-10T17:22:08.785Z,8.40
2019-02-10T17:24:39.885Z,8.40
2019-02-10T17:27:10.833Z,8.30
2019-02-10T17:29:41.949Z,8.30
2019-02-10T17:32:13.068Z,8.30
2019-02-10T17:34:43.903Z,8.30
2019-02-10T17:37:14.982Z,8.30
2019-02-10T17:39:46.152Z,8.30
2019-02-10T17:42:16.974Z,8.30
2019-02-10T17:44:48.299Z,8.30
2019-02-10T17:47:19.756Z,8.30
2019-02-10T17:49:50.730Z,8.30
2019-02-10T17:52:21.598Z,8.30
2019-02-10T17:54:52.490Z,8.30
2019-02-10T17:57:23.800Z,8.20
2019-02-10T17:59:54.852Z,8.20
2019-02-10T18:02:25.781Z,8.20
2019-02-10T18:04:56.766Z,8.20
2019-02-10T18:07:27.751Z,8.20
2019-02-10T18:09:59.520Z,8.20
2019-02-10T18:12:30.904Z,8.20
2019-02-10T18:15:32.967Z,8.20
2019-02-10T18:18:35.840Z,8.20
2019-02-10T18:21:20.607Z,8.20
2019-02-10T18:24:06.419Z,8.20
2019-02-10T18:26:58.926Z,8.10
2019-02-10T18:29:47.542Z,8.20
2019-02-10T18:32:25.211Z,8.10
2019-02-10T18:35:15.069Z,8.10
2019-02-10T18:38:09.129Z,8.10
2019-02-10T18:41:10.758Z,8.20
2019-02-10T18:43:58.938Z,8.10
2019-02-10T18:46:48.564Z,8.10
2019-02-10T18:49:44.960Z,8.10
2019-02-10T18:52:25.573Z,8.20
2019-02-10T18:55:12.542Z,8.20
2019-02-10T18:57:53.916Z,8.10
2019-02-10T19:00:42.238Z,8.10
2019-02-10T19:03:34.705Z,8.10
2019-02-10T19:06:22.500Z,8.10
2019-02-10T19:09:12.174Z,8.00
2019-02-10T19:12:17.019Z,8.00
2019-02-10T19:15:19.014Z,8.10
2019-02-10T19:18:23.787Z,8.10
2019-02-10T19:21:25.506Z,8.10
2019-02-10T19:24:02.127Z,8.10
2019-02-10T19:26:58.033Z,8.10
2019-02-10T19:29:45.904Z,8.20
2019-02-10T19:32:33.883Z,8.10
2019-02-10T19:35:29.809Z,8.10
2019-02-10T19:38:15.629Z,8.10
2019-02-10T19:41:04.362Z,8.30
2019-02-10T19:43:53.285Z,8.30
2019-02-10T19:46:44.152Z,8.20
2019-02-10T19:49:41.180Z,8.20
2019-02-10T19:52:26.852Z,8.20
2019-02-10T19:55:15.612Z,8.20
2019-02-10T19:57:56.785Z,8.10
2019-02-10T20:00:55.651Z,8.10
2019-02-10T20:03:52.214Z,8.10
2019-02-10T20:06:35.633Z,8.10
2019-02-10T20:09:36.278Z,8.10
2019-02-10T20:12:28.462Z,8.00
2019-02-10T20:15:14.475Z,8.00
2019-02-10T20:18:02.932Z,8.00
2019-02-10T20:20:41.829Z,7.90
2019-02-10T20:23:37.402Z,7.90
2019-02-10T20:26:42.611Z,7.90
2019-02-10T20:29:32.910Z,7.80
2019-02-10T20:32:20.733Z,7.80
2019-02-10T20:35:11.521Z,7.80
2019-02-10T20:37:57.214Z,7.70
2019-02-10T20:40:47.381Z,7.60
2019-02-10T20:43:32.454Z,7.60
2019-02-10T20:46:22.495Z,7.60
2019-02-10T20:49:12.162Z,7.60
2019-02-10T20:51:56.295Z,7.60
2019-02-10T20:54:38.557Z,7.60
2019-02-10T20:57:27.190Z,7.60
2019-02-10T21:00:24.762Z,7.60
2019-02-10T21:03:27.333Z,7.60
2019-02-10T21:06:19.717Z,7.60
2019-02-10T21:09:15.698Z,7.60
2019-02-10T21:12:07.711Z,7.60
2019-02-10T21:14:53.378Z,7.60
2019-02-10T21:17:43.352Z,7.60
2019-02-10T21:20:24.006Z,7.60
2019-02-10T21:23:13.754Z,7.60
2019-02-10T21:26:06.772Z,7.60
2019-02-10T21:29:08.164Z,7.50
2019-02-10T21:31:56.273Z,7.50
2019-02-10T21:34:44.857Z,7.40
2019-02-10T21:37:23.588Z,7.30
2019-02-10T21:40:09.756Z,7.30
2019-02-10T21:43:05.860Z,7.30
2019-02-10T21:45:58.643Z,7.20
2019-02-10T21:48:35.623Z,7.30
2019-02-10T21:51:06.736Z,7.30
2019-02-10T21:53:37.490Z,7.40
2019-02-10T21:56:08.438Z,7.30
2019-02-10T21:58:39.000Z,7.30
2019-02-10T22:01:09.779Z,7.30
2019-02-10T22:03:40.553Z,7.40
2019-02-10T22:06:11.154Z,7.40
2019-02-10T22:08:42.010Z,7.50
2019-02-10T22:11:12.674Z,7.50
2019-02-10T22:13:43.311Z,7.60
2019-02-10T22:16:14.130Z,7.60
2019-02-10T22:18:44.756Z,7.60
2019-02-10T22:21:15.772Z,7.60
2019-02-10T22:23:46.484Z,7.60
2019-02-10T22:26:17.442Z,7.70
2019-02-10T22:28:48.094Z,7.60
2019-02-10T22:31:19.262Z,7.60
2019-02-10T22:33:51.498Z,7.60
2019-02-10T22:36:22.714Z,7.60
2019-02-10T22:38:53.928Z,7.60
2019-02-10T22:41:24.651Z,7.60
2019-02-10T22:43:55.672Z,7.60
2019-02-10T22:46:26.960Z,7.60
2019-02-10T22:49:02.408Z,7.70
2019-02-10T22:51:33.612Z,7.70
2019-02-10T22:54:04.783Z,7.80
2019-02-10T22:56:36.253Z,7.80
2019-02-10T22:59:07.083Z,7.80
2019-02-10T23:01:38.237Z,7.90
2019-02-10T23:04:09.416Z,7.90
2019-02-10T23:06:40.526Z,7.90
2019-02-10T23:09:30.153Z,8.00
2019-02-10T23:12:01.290Z,8.00
2019-02-10T23:14:32.325Z,8.00
2019-02-10T23:17:03.081Z,8.00
2019-02-10T23:19:33.883Z,8.00
2019-02-10T23:22:04.571Z,8.00
2019-02-10T23:24:35.256Z,8.00
2019-02-10T23:27:06.755Z,8.00
2019-02-10T23:29:37.672Z,8.00
2019-02-10T23:32:08.603Z,8.00
2019-02-10T23:34:39.390Z,7.90
2019-02-10T23:37:10.719Z,7.90
2019-02-10T23:39:41.454Z,7.80
2019-02-10T23:42:12.155Z,7.80
2019-02-10T23:44:42.893Z,7.80
2019-02-10T23:47:13.828Z,7.80
2019-02-10T23:49:44.852Z,7.80
2019-02-10T23:52:15.735Z,7.70
2019-02-10T23:54:46.771Z,7.70
2019-02-10T23:57:18.232Z,7.70
2019-02-10T23:59:49.205Z,7.70
